Time;durP1;ratioP1;P1;durP2;ratioP2;P2;SDS_P1;SDS_P2;PMS_P1;PMS_P2;Temp;Humidity;BMP_temperature;BMP_pressure;BME280_temperature;BME280_humidity;BME280_pressure;Samples;Min_cycle;Max_cycle;Signal;HPM_P1;HPM_P2
2023/02/16 00:04:28;;;;;;;47.33;22.67;;;;;5.20;101924.00;;;;9995024;29;20202;-78
2023/02/16 00:09:30;;;;;;;49.40;24.73;;;;;5.20;101929.00;;;;10005795;29;20208;-79
2023/02/16 00:14:35;;;;;;;47.97;26.63;;;;;5.20;101939.00;;;;10045842;29;20304;-79
2023/02/16 00:19:40;;;;;;;52.17;26.63;;;;;5.10;101941.00;;;;10024256;29;20679;-80
2023/02/16 00:24:42;;;;;;;56.33;26.27;;;;;4.90;101947.00;;;;10038674;29;20217;-79
2023/02/16 00:29:44;;;;;;;50.20;26.93;;;;;4.90;101941.00;;;;10037964;29;20618;-79
2023/02/16 00:34:46;;;;;;;50.07;25.93;;;;;4.80;101932.00;;;;10000023;29;20229;-78
2023/02/16 00:39:48;;;;;;;49.77;24.00;;;;;4.70;101935.00;;;;9970625;29;20201;-79
2023/02/16 00:44:52;;;;;;;50.93;26.57;;;;;4.70;101933.00;;;;10002192;29;20190;-78
2023/02/16 00:49:54;;;;;;;46.93;26.53;;;;;4.70;101921.00;;;;10039426;29;20218;-79
2023/02/16 00:54:58;;;;;;;47.00;26.27;;;;;4.80;101917.00;;;;10033314;29;20217;-79
2023/02/16 01:00:24;;;;;;;48.40;24.03;;;;;4.90;101912.00;;;;10015249;29;20204;-79
2023/02/16 01:05:27;;;;;;;50.60;26.90;;;;;5.00;101896.00;;;;10045538;29;20191;-78
2023/02/16 01:15:49;;;;;;;49.93;24.87;;;;;5.10;101907.00;;;;10029399;29;20978;-79
2023/02/16 01:20:51;;;;;;;50.60;26.00;;;;;5.00;101893.00;;;;10082016;29;20200;-78
2023/02/16 01:25:53;;;;;;;51.20;26.33;;;;;5.00;101892.00;;;;10063366;29;20224;-79
2023/02/16 01:30:56;;;;;;;49.23;26.00;;;;;5.00;101888.00;;;;10030521;29;20205;-80
2023/02/16 01:35:58;;;;;;;51.20;26.40;;;;;5.00;101878.00;;;;10044870;29;20213;-79
2023/02/16 01:41:03;;;;;;;58.13;28.07;;;;;5.00;101875.00;;;;10029818;29;20193;-79
2023/02/16 01:46:13;;;;;;;50.97;26.00;;;;;5.10;101882.00;;;;10011655;29;20395;-79
2023/02/16 01:51:32;;;;;;;50.50;25.63;;;;;5.00;101879.00;;;;10029514;29;20201;-78
2023/02/16 01:56:42;;;;;;;45.93;25.03;;;;;4.90;101870.00;;;;10018349;29;20234;-79
2023/02/16 02:01:53;;;;;;;47.83;25.43;;;;;5.00;101872.00;;;;10031773;29;20262;-79
2023/02/16 02:06:55;;;;;;;46.17;24.87;;;;;5.00;101861.00;;;;10014084;29;20564;-78
2023/02/16 02:12:15;;;;;;;44.37;24.13;;;;;5.10;101843.00;;;;9990772;29;20321;-78
2023/02/16 02:17:20;;;;;;;50.93;23.43;;;;;5.30;101849.00;;;;9976529;29;20577;-78
2023/02/16 02:28:21;;;;;;;46.00;25.80;;;;;5.50;101836.00;;;;10043238;29;20276;-79
2023/02/16 02:33:48;;;;;;;47.07;25.03;;;;;5.50;101822.00;;;;10041577;29;20219;-79
2023/02/16 02:39:05;;;;;;;43.30;22.87;;;;;5.50;101808.00;;;;10063021;29;20203;-79
2023/02/16 02:44:09;;;;;;;44.20;23.67;;;;;5.60;101810.00;;;;10060715;29;20197;-78
2023/02/16 02:49:11;;;;;;;43.87;24.37;;;;;5.50;101810.00;;;;10055778;29;20189;-79
2023/02/16 03:05:32;;;;;;;42.23;22.60;;;;;5.50;101800.00;;;;10023011;29;20201;-79
2023/02/16 03:16:03;;;;;;;43.40;23.07;;;;;5.70;101814.00;;;;10029051;29;20599;-79
2023/02/16 03:31:54;;;;;;;51.67;24.57;;;;;5.50;101787.00;;;;10024530;29;20232;-79
2023/02/16 03:36:59;;;;;;;41.03;22.10;;;;;5.50;101795.00;;;;10009337;29;20201;-78
2023/02/16 03:42:01;;;;;;;39.17;21.97;;;;;5.50;101796.00;;;;10025494;29;20245;-78
2023/02/16 03:47:09;;;;;;;43.97;23.03;;;;;5.40;101799.00;;;;10032125;29;20216;-79
2023/02/16 03:52:11;;;;;;;40.53;21.53;;;;;5.40;101798.00;;;;10043757;29;20715;-79
2023/02/16 03:57:15;;;;;;;45.40;23.77;;;;;5.50;101795.00;;;;10042473;29;20232;-78
2023/02/16 04:02:20;;;;;;;43.50;22.00;;;;;5.50;101791.00;;;;10046949;29;20211;-78
2023/02/16 04:07:23;;;;;;;40.03;21.93;;;;;5.60;101801.00;;;;10028326;29;20216;-78
2023/02/16 04:12:37;;;;;;;42.90;22.73;;;;;5.70;101785.00;;;;10036793;29;20226;-78
2023/02/16 04:34:39;;;;;;;41.47;21.33;;;;;5.80;101784.00;;;;10034443;29;20253;-78
2023/02/16 04:40:29;;;;;;;38.97;20.77;;;;;5.90;101796.00;;;;10025926;29;20743;-78
2023/02/16 04:45:31;;;;;;;44.13;20.83;;;;;6.00;101810.00;;;;10011235;29;20193;-79
2023/02/16 04:50:35;;;;;;;46.53;23.93;;;;;6.00;101801.00;;;;10033265;29;20209;-79
2023/02/16 04:55:38;;;;;;;38.23;21.57;;;;;6.10;101794.00;;;;10072635;29;20796;-79
2023/02/16 05:00:40;;;;;;;37.87;21.47;;;;;6.20;101777.00;;;;10048410;29;20843;-80
2023/02/16 05:05:43;;;;;;;38.77;22.27;;;;;6.30;101790.00;;;;10062312;29;20197;-79
2023/02/16 05:14:40;;;;;;;37.53;21.67;;;;;6.30;101786.00;;;;10063702;29;20206;-79
2023/02/16 05:16:08;;;;;;;38.40;22.93;;;;;6.40;101773.00;;;;10036484;29;20264;-79
2023/02/16 05:26:31;;;;;;;39.83;21.33;;;;;6.50;101783.00;;;;10024208;29;20229;-79
2023/02/16 05:31:33;;;;;;;39.80;22.23;;;;;6.50;101779.00;;;;10024757;29;20265;-79
2023/02/16 05:36:35;;;;;;;36.60;20.67;;;;;6.40;101755.00;;;;10049774;29;20775;-79
2023/02/16 05:41:37;;;;;;;40.50;22.73;;;;;6.40;101758.00;;;;9978936;29;20221;-79
2023/02/16 05:46:40;;;;;;;36.50;21.10;;;;;6.50;101756.00;;;;9992824;29;20225;-79
2023/02/16 05:51:42;;;;;;;40.87;21.30;;;;;6.60;101771.00;;;;10015334;29;20295;-79
2023/02/16 05:56:50;;;;;;;38.20;21.40;;;;;6.60;101773.00;;;;10029994;29;20196;-79
2023/02/16 06:01:52;;;;;;;37.70;21.60;;;;;6.60;101784.00;;;;10006505;29;20678;-79
2023/02/16 06:06:55;;;;;;;36.30;21.47;;;;;6.50;101779.00;;;;10010668;29;20271;-80
2023/02/16 06:11:58;;;;;;;35.97;19.97;;;;;6.40;101776.00;;;;10024222;29;20292;-79
2023/02/16 06:17:00;;;;;;;35.80;20.87;;;;;6.40;101800.00;;;;9994165;29;20208;-80
2023/02/16 06:22:02;;;;;;;38.10;22.83;;;;;6.50;101790.00;;;;10022397;29;20205;-79
2023/02/16 06:27:04;;;;;;;43.70;23.27;;;;;6.60;101795.00;;;;9981187;29;20222;-80
2023/02/16 06:32:06;;;;;;;38.90;21.53;;;;;6.70;101805.00;;;;10005871;29;20232;-78
2023/02/16 06:37:08;;;;;;;36.80;21.40;;;;;6.70;101798.00;;;;9984339;29;20795;-79
2023/02/16 06:42:10;;;;;;;34.87;20.97;;;;;6.80;101805.00;;;;9997707;29;20262;-79
2023/02/16 06:47:13;;;;;;;36.17;20.53;;;;;6.70;101793.00;;;;9999455;29;20254;-79
2023/02/16 06:52:15;;;;;;;36.20;19.87;;;;;6.80;101806.00;;;;9999833;29;20213;-78
2023/02/16 06:57:18;;;;;;;36.60;21.73;;;;;6.80;101803.00;;;;10020699;29;20202;-78
2023/02/16 07:02:20;;;;;;;38.83;20.00;;;;;6.80;101800.00;;;;10000945;29;20197;-79
2023/02/16 07:07:23;;;;;;;31.47;19.67;;;;;6.80;101803.00;;;;10000113;29;20228;-78
2023/02/16 07:12:24;;;;;;;44.37;21.10;;;;;6.90;101810.00;;;;10025231;29;20223;-79
2023/02/16 07:17:26;;;;;;;38.13;21.83;;;;;6.90;101820.00;;;;10026795;29;20382;-78
2023/02/16 07:22:28;;;;;;;36.17;20.47;;;;;7.00;101824.00;;;;10011841;29;20240;-78
2023/02/16 07:27:30;;;;;;;37.83;22.83;;;;;7.20;101828.00;;;;10030673;29;20219;-78
2023/02/16 07:32:33;;;;;;;35.13;21.43;;;;;7.20;101826.00;;;;10031833;29;20216;-79
2023/02/16 07:37:36;;;;;;;38.37;22.30;;;;;7.30;101835.00;;;;10015359;29;20254;-78
2023/02/16 07:42:38;;;;;;;38.47;21.30;;;;;7.30;101837.00;;;;10004240;29;20201;-78
2023/02/16 07:47:40;;;;;;;39.63;20.30;;;;;7.50;101843.00;;;;10042841;29;20228;-79
2023/02/16 07:52:42;;;;;;;36.80;22.07;;;;;7.70;101844.00;;;;9996003;29;20220;-79
2023/02/16 07:57:45;;;;;;;37.20;21.60;;;;;7.90;101841.00;;;;10006066;29;20211;-79
2023/02/16 08:02:47;;;;;;;38.40;20.73;;;;;8.00;101829.00;;;;10058867;29;20224;-79
2023/02/16 08:07:50;;;;;;;42.57;22.80;;;;;7.90;101840.00;;;;10017576;29;20212;-79
2023/02/16 08:12:52;;;;;;;37.83;21.10;;;;;7.80;101833.00;;;;10054204;29;20208;-80
2023/02/16 08:17:54;;;;;;;37.60;21.50;;;;;7.90;101837.00;;;;10009560;29;20204;-78
2023/02/16 08:22:56;;;;;;;41.87;21.70;;;;;8.10;101831.00;;;;10024341;29;20237;-79
2023/02/16 08:27:58;;;;;;;37.07;21.27;;;;;8.30;101838.00;;;;10040431;29;20248;-79
2023/02/16 08:33:00;;;;;;;35.73;21.50;;;;;8.50;101841.00;;;;9985917;29;20228;-78
2023/02/16 08:38:02;;;;;;;43.17;23.63;;;;;8.50;101848.00;;;;9999823;29;20597;-79
2023/02/16 08:43:04;;;;;;;40.93;22.67;;;;;8.50;101863.00;;;;10006391;29;20208;-79
2023/02/16 08:48:06;;;;;;;40.70;22.43;;;;;8.60;101859.00;;;;10004664;29;20740;-78
2023/02/16 08:53:08;;;;;;;38.73;22.60;;;;;8.60;101861.00;;;;10019767;29;20217;-79
2023/02/16 08:58:10;;;;;;;39.53;23.03;;;;;8.60;101871.00;;;;10020601;29;20660;-79
2023/02/16 09:03:12;;;;;;;38.60;21.30;;;;;8.60;101869.00;;;;9991776;29;20205;-79
2023/02/16 09:08:14;;;;;;;38.70;21.97;;;;;8.60;101865.00;;;;10001430;29;20308;-79
2023/02/16 09:13:16;;;;;;;41.93;23.67;;;;;8.70;101860.00;;;;10008884;29;20209;-80
2023/02/16 09:18:18;;;;;;;41.43;22.63;;;;;8.90;101857.00;;;;10009131;29;20197;-80
2023/02/16 09:23:20;;;;;;;42.63;24.17;;;;;8.90;101862.00;;;;10025836;29;20200;-79
2023/02/16 09:28:22;;;;;;;41.40;23.90;;;;;9.00;101852.00;;;;10051764;29;20683;-79
2023/02/16 09:33:25;;;;;;;49.57;26.97;;;;;9.00;101860.00;;;;10028933;29;20217;-79
2023/02/16 09:38:27;;;;;;;41.67;24.03;;;;;9.00;101869.00;;;;10027907;29;20227;-79
2023/02/16 09:43:55;;;;;;;38.07;23.67;;;;;9.00;101874.00;;;;10027941;29;20284;-79
2023/02/16 09:49:01;;;;;;;43.27;24.33;;;;;9.10;101879.00;;;;10013423;29;20261;-79
2023/02/16 09:54:31;;;;;;;40.37;23.37;;;;;9.30;101879.00;;;;10012789;29;20213;-79
2023/02/16 09:59:42;;;;;;;54.63;25.97;;;;;9.60;101879.00;;;;10056152;29;20272;-79
2023/02/16 10:05:02;;;;;;;43.07;24.27;;;;;9.60;101872.00;;;;10065469;29;20196;-79
2023/02/16 10:10:06;;;;;;;35.80;22.13;;;;;9.70;101870.00;;;;10081773;29;20210;-79
2023/02/16 10:15:15;;;;;;;43.27;22.37;;;;;9.40;101870.00;;;;10037202;29;20308;-79
2023/02/16 10:20:36;;;;;;;37.53;23.43;;;;;9.10;101870.00;;;;10004878;29;20296;-79
2023/02/16 10:25:56;;;;;;;35.40;22.73;;;;;9.40;101845.00;;;;10024238;29;20224;-78
2023/02/16 10:31:09;;;;;;;39.20;23.30;;;;;10.10;101835.00;;;;10026421;29;20665;-78
2023/02/16 10:36:33;;;;;;;40.33;23.03;;;;;10.40;101837.00;;;;10028311;29;20280;-78
2023/02/16 10:41:43;;;;;;;40.33;22.60;;;;;10.30;101854.00;;;;10064018;29;20659;-78
2023/02/16 10:46:50;;;;;;;41.00;23.40;;;;;10.30;101846.00;;;;10080378;29;20204;-78
2023/02/16 10:51:55;;;;;;;36.10;20.17;;;;;10.60;101852.00;;;;10024297;29;20291;-78
2023/02/16 10:57:02;;;;;;;34.17;19.43;;;;;10.90;101849.00;;;;10025376;29;20277;-78
2023/02/16 11:02:18;;;;;;;40.90;21.30;;;;;11.10;101838.00;;;;10056748;29;20751;-78
2023/02/16 11:07:22;;;;;;;39.93;22.13;;;;;11.80;101828.00;;;;10062665;29;20205;-78
2023/02/16 11:12:37;;;;;;;35.07;21.63;;;;;12.00;101822.00;;;;10040631;29;20272;-79
2023/02/16 11:17:56;;;;;;;35.60;21.13;;;;;12.40;101813.00;;;;10026159;29;20193;-78
2023/02/16 11:23:16;;;;;;;32.13;20.53;;;;;13.10;101815.00;;;;10037780;29;20215;-79
2023/02/16 11:28:27;;;;;;;31.77;19.47;;;;;13.50;101796.00;;;;10055070;29;20228;-78
2023/02/16 11:33:29;;;;;;;32.93;21.33;;;;;14.30;101798.00;;;;10009267;29;20213;-78
2023/02/16 11:38:33;;;;;;;30.20;19.27;;;;;14.30;101788.00;;;;10023265;29;20244;-79
2023/02/16 11:43:37;;;;;;;27.00;19.40;;;;;13.90;101791.00;;;;10002580;29;20209;-78
2023/02/16 11:48:40;;;;;;;25.40;18.17;;;;;13.90;101785.00;;;;10038052;29;20238;-78
2023/02/16 11:53:43;;;;;;;25.53;17.50;;;;;14.00;101772.00;;;;10029215;29;20304;-79
2023/02/16 11:59:04;;;;;;;23.60;16.37;;;;;14.60;101758.00;;;;10040101;29;20217;-77
2023/02/16 12:04:49;;;;;;;23.60;16.13;;;;;15.50;101742.00;;;;10001992;29;20218;-76
2023/02/16 12:10:02;;;;;;;21.23;15.32;;;;;15.80;101750.00;;;;10009800;29;20546;-76
2023/02/16 12:15:35;;;;;;;23.42;13.82;;;;;15.60;101750.00;;;;10022006;29;20208;-77
2023/02/16 12:20:55;;;;;;;19.35;14.13;;;;;15.40;101738.00;;;;10061489;29;20660;-76
2023/02/16 12:26:32;;;;;;;24.15;14.23;;;;;15.60;101738.00;;;;10041653;29;20285;-77
2023/02/16 12:31:46;;;;;;;21.42;15.18;;;;;15.60;101737.00;;;;10040599;29;20230;-76
2023/02/16 12:36:57;;;;;;;23.25;15.43;;;;;16.10;101731.00;;;;10057579;29;20213;-76
2023/02/16 12:42:28;;;;;;;20.50;14.32;;;;;16.10;101720.00;;;;10039067;29;20303;-76
2023/02/16 12:47:37;;;;;;;26.38;16.55;;;;;16.10;101703.00;;;;10026291;29;20211;-76
2023/02/16 12:52:51;;;;;;;22.65;15.27;;;;;16.10;101706.00;;;;10063539;29;20197;-76
2023/02/16 12:58:14;;;;;;;21.75;15.45;;;;;16.00;101701.00;;;;10016201;29;20208;-76
2023/02/16 13:03:36;;;;;;;19.38;14.07;;;;;15.90;101695.00;;;;10030879;29;20189;-76
2023/02/16 13:09:16;;;;;;;19.92;13.25;;;;;15.80;101697.00;;;;10045358;29;20205;-76
2023/02/16 13:14:24;;;;;;;21.45;14.57;;;;;16.00;101712.00;;;;10045064;29;20200;-76
2023/02/16 13:19:26;;;;;;;21.83;14.65;;;;;15.90;101698.00;;;;10050762;29;20326;-76
2023/02/16 13:24:49;;;;;;;22.13;13.93;;;;;16.00;101679.00;;;;10056391;29;20216;-76
2023/02/16 13:30:03;;;;;;;25.33;16.33;;;;;16.30;101687.00;;;;10033051;29;20233;-76
2023/02/16 13:35:15;;;;;;;24.90;14.63;;;;;16.60;101672.00;;;;10056588;29;20204;-77
2023/02/16 13:40:24;;;;;;;25.30;15.07;;;;;16.40;101682.00;;;;10052076;29;20598;-76
2023/02/16 13:45:32;;;;;;;21.25;14.10;;;;;16.10;101660.00;;;;10067125;29;20215;-76
2023/02/16 13:50:34;;;;;;;19.88;14.00;;;;;16.10;101643.00;;;;10051933;29;20598;-76
2023/02/16 13:55:38;;;;;;;19.83;13.13;;;;;16.00;101654.00;;;;10029176;29;20760;-76
2023/02/16 14:00:46;;;;;;;24.27;13.85;;;;;15.80;101640.00;;;;10043593;29;20292;-76
2023/02/16 14:05:52;;;;;;;20.23;13.43;;;;;15.50;101631.00;;;;10052801;29;20200;-76
2023/02/16 14:10:56;;;;;;;20.63;12.77;;;;;15.50;101622.00;;;;10060852;29;20257;-77
2023/02/16 14:16:03;;;;;;;22.45;13.02;;;;;15.70;101620.00;;;;10044123;29;20315;-77
2023/02/16 14:21:17;;;;;;;21.77;13.45;;;;;16.70;101605.00;;;;10034252;29;20211;-77
2023/02/16 14:26:19;;;;;;;20.35;12.27;;;;;16.50;101614.00;;;;10047852;29;20229;-77
2023/02/16 14:31:24;;;;;;;20.67;13.57;;;;;15.80;101602.00;;;;10043443;29;20181;-76
2023/02/16 14:36:27;;;;;;;21.30;12.55;;;;;15.50;101609.00;;;;10013012;29;20213;-76
2023/02/16 14:41:34;;;;;;;21.08;13.60;;;;;15.60;101605.00;;;;10042389;29;20299;-76
2023/02/16 14:47:10;;;;;;;23.17;13.77;;;;;15.20;101600.00;;;;10026560;29;20240;-77
2023/02/16 14:52:50;;;;;;;21.75;12.98;;;;;14.70;101604.00;;;;10042527;29;20257;-76
2023/02/16 14:58:21;;;;;;;20.52;12.80;;;;;14.70;101597.00;;;;10041145;29;20216;-76
2023/02/16 15:03:25;;;;;;;21.98;13.15;;;;;14.90;101609.00;;;;10078648;29;20219;-76
2023/02/16 15:08:33;;;;;;;22.77;13.07;;;;;14.30;101589.00;;;;10063861;29;20214;-76
2023/02/16 15:13:35;;;;;;;18.47;12.67;;;;;14.20;101584.00;;;;10063876;29;20208;-75
2023/02/16 15:18:41;;;;;;;20.67;12.47;;;;;14.00;101599.00;;;;10072282;29;20213;-76
2023/02/16 15:23:51;;;;;;;19.00;11.10;;;;;13.60;101607.00;;;;10023225;29;20234;-76
2023/02/16 15:29:00;;;;;;;25.13;13.77;;;;;13.40;101607.00;;;;10027380;29;20213;-77
2023/02/16 15:34:10;;;;;;;20.13;12.50;;;;;13.50;101618.00;;;;10056998;29;20292;-76
2023/02/16 15:39:15;;;;;;;22.40;12.20;;;;;13.30;101612.00;;;;10032996;29;20214;-76
2023/02/16 15:44:33;;;;;;;23.43;13.07;;;;;13.20;101622.00;;;;10044321;29;20449;-76
2023/02/16 15:49:37;;;;;;;12.67;8.83;;;;;13.00;101625.00;;;;10026088;29;20193;-76
2023/02/16 15:54:40;;;;;;;17.60;9.30;;;;;12.60;101633.00;;;;10033342;29;20283;-77
2023/02/16 15:59:46;;;;;;;19.10;11.87;;;;;12.40;101632.00;;;;10025939;29;20193;-78
2023/02/16 16:04:55;;;;;;;21.00;14.03;;;;;12.00;101637.00;;;;9988353;29;20693;-78
2023/02/16 16:09:58;;;;;;;23.43;12.53;;;;;11.70;101652.00;;;;9972921;29;20285;-78
2023/02/16 16:15:01;;;;;;;17.97;11.80;;;;;11.50;101651.00;;;;9996193;29;20225;-78
2023/02/16 16:20:27;;;;;;;22.83;11.93;;;;;11.30;101657.00;;;;10025414;29;20299;-78
2023/02/16 16:25:46;;;;;;;16.43;11.10;;;;;11.20;101662.00;;;;10006699;29;20228;-78
2023/02/16 16:31:24;;;;;;;18.67;11.47;;;;;10.90;101660.00;;;;10038746;29;20232;-77
2023/02/16 16:36:32;;;;;;;22.23;12.20;;;;;10.70;101661.00;;;;10035929;29;20208;-77
2023/02/16 16:41:33;;;;;;;31.13;15.03;;;;;10.50;101660.00;;;;10034155;29;20213;-78
2023/02/16 16:46:35;;;;;;;21.33;13.87;;;;;10.40;101683.00;;;;10037624;29;20188;-78
2023/02/16 16:51:40;;;;;;;22.60;13.60;;;;;10.30;101680.00;;;;10023022;29;20189;-77
2023/02/16 16:56:42;;;;;;;21.53;13.73;;;;;10.20;101667.00;;;;9991637;29;20301;-77
2023/02/16 17:01:46;;;;;;;26.30;14.53;;;;;10.10;101661.00;;;;9967053;29;20210;-76
2023/02/16 17:06:48;;;;;;;21.77;14.33;;;;;10.10;101659.00;;;;10011241;29;20204;-77
2023/02/16 17:11:50;;;;;;;23.00;14.60;;;;;10.10;101655.00;;;;10053527;29;20204;-77
2023/02/16 17:16:53;;;;;;;23.13;13.83;;;;;10.10;101648.00;;;;10075552;29;20208;-78
2023/02/16 17:21:55;;;;;;;25.07;13.90;;;;;10.10;101651.00;;;;10038150;29;20648;-77
2023/02/16 17:26:57;;;;;;;25.10;14.53;;;;;10.10;101663.00;;;;10006584;29;20285;-77
2023/02/16 17:31:59;;;;;;;24.43;15.37;;;;;10.20;101666.00;;;;9975229;29;20321;-77
2023/02/16 17:37:06;;;;;;;27.33;15.80;;;;;10.30;101662.00;;;;10020269;29;20217;-77
2023/02/16 17:42:12;;;;;;;27.93;14.93;;;;;10.30;101651.00;;;;9975760;29;20213;-77
2023/02/16 17:47:15;;;;;;;26.90;16.40;;;;;10.30;101651.00;;;;10021310;29;20194;-77
2023/02/16 17:52:17;;;;;;;29.03;15.37;;;;;10.30;101650.00;;;;10035244;29;20193;-78
2023/02/16 17:57:19;;;;;;;22.27;15.03;;;;;10.40;101657.00;;;;10027530;29;20217;-77
2023/02/16 18:02:21;;;;;;;25.97;14.83;;;;;10.50;101647.00;;;;10037033;29;20231;-77
2023/02/16 18:07:23;;;;;;;27.90;17.80;;;;;10.50;101638.00;;;;10012627;29;20197;-77
2023/02/16 18:12:25;;;;;;;30.13;16.10;;;;;10.50;101638.00;;;;10028308;29;20200;-78
2023/02/16 18:17:29;;;;;;;29.70;16.33;;;;;10.60;101634.00;;;;10038264;29;20213;-78
2023/02/16 18:22:31;;;;;;;24.07;15.13;;;;;10.60;101609.00;;;;10081646;29;20216;-78
2023/02/16 18:27:33;;;;;;;28.77;16.27;;;;;10.60;101633.00;;;;10032206;29;20225;-78
2023/02/16 18:32:35;;;;;;;22.57;14.53;;;;;10.50;101628.00;;;;10004897;29;20221;-78
2023/02/16 18:37:37;;;;;;;26.47;16.97;;;;;10.60;101641.00;;;;10022416;29;20294;-78
2023/02/16 18:42:40;;;;;;;24.37;16.17;;;;;10.50;101629.00;;;;10027609;29;20295;-77
2023/02/16 18:47:43;;;;;;;25.50;14.80;;;;;10.50;101618.00;;;;10027659;29;20898;-78
2023/02/16 18:52:46;;;;;;;19.90;13.77;;;;;10.50;101621.00;;;;10027863;29;20569;-78
2023/02/16 18:57:48;;;;;;;28.50;15.50;;;;;10.40;101618.00;;;;10026714;29;20249;-78
2023/02/16 19:02:50;;;;;;;26.40;16.33;;;;;10.40;101614.00;;;;10041676;29;20193;-78
2023/02/16 19:07:52;;;;;;;24.63;15.50;;;;;10.40;101614.00;;;;10011475;29;20186;-79
2023/02/16 19:12:54;;;;;;;24.83;15.57;;;;;10.30;101618.00;;;;10011742;29;20568;-78
2023/02/16 19:17:56;;;;;;;27.97;17.13;;;;;10.30;101617.00;;;;10026251;29;20332;-77
2023/02/16 19:22:58;;;;;;;27.90;17.37;;;;;10.30;101604.00;;;;10011754;29;20707;-77
2023/02/16 19:28:00;;;;;;;18.97;10.60;;;;;10.30;101593.00;;;;10011264;29;20221;-78
2023/02/16 19:33:02;;;;;;;22.07;13.40;;;;;10.30;101602.00;;;;10016550;29;20232;-77
2023/02/16 19:38:04;;;;;;;20.80;14.40;;;;;10.40;101595.00;;;;10026419;29;20316;-77
2023/02/16 19:43:06;;;;;;;20.53;13.07;;;;;10.40;101595.00;;;;10041785;29;20313;-78
2023/02/16 19:48:08;;;;;;;17.90;11.97;;;;;10.40;101589.00;;;;10041083;29;20185;-78
2023/02/16 19:53:10;;;;;;;19.67;11.30;;;;;10.40;101586.00;;;;10037106;29;20276;-78
2023/02/16 19:58:12;;;;;;;13.53;9.70;;;;;10.50;101604.00;;;;10055058;29;20217;-78
2023/02/16 20:03:15;;;;;;;10.93;7.87;;;;;10.50;101598.00;;;;10048302;29;20612;-78
2023/02/16 20:08:17;;;;;;;14.33;10.23;;;;;10.60;101604.00;;;;10010141;29;20241;-78
2023/02/16 20:13:18;;;;;;;20.80;10.73;;;;;10.70;101602.00;;;;10009170;29;20292;-78
2023/02/16 20:18:21;;;;;;;14.70;10.73;;;;;10.70;101606.00;;;;10032570;29;20250;-78
2023/02/16 20:23:23;;;;;;;14.43;10.20;;;;;10.80;101601.00;;;;10023444;29;20201;-78
2023/02/16 20:28:25;;;;;;;15.40;11.27;;;;;10.80;101598.00;;;;10009021;29;20216;-78
2023/02/16 20:33:27;;;;;;;15.77;10.80;;;;;10.80;101600.00;;;;10022411;29;20296;-78
2023/02/16 20:38:29;;;;;;;15.30;10.60;;;;;10.80;101599.00;;;;10006565;29;20309;-77
2023/02/16 20:43:32;;;;;;;14.20;9.47;;;;;10.80;101586.00;;;;10009045;29;20209;-78
2023/02/16 20:48:35;;;;;;;14.33;9.57;;;;;10.90;101582.00;;;;10011076;29;20295;-78
2023/02/16 20:53:37;;;;;;;14.43;9.47;;;;;10.90;101583.00;;;;10024111;29;20649;-78
2023/02/16 20:58:40;;;;;;;14.37;8.67;;;;;10.90;101591.00;;;;9999568;29;20233;-78
2023/02/16 21:03:42;;;;;;;11.47;8.07;;;;;10.90;101577.00;;;;9970614;29;20202;-79
2023/02/16 21:08:44;;;;;;;11.63;7.77;;;;;11.00;101563.00;;;;9998379;29;20216;-77
2023/02/16 21:13:47;;;;;;;12.60;7.53;;;;;11.00;101561.00;;;;10050951;29;20728;-77
2023/02/16 21:18:49;;;;;;;11.30;7.40;;;;;11.00;101571.00;;;;10045880;29;20269;-78
2023/02/16 21:23:53;;;;;;;10.27;6.90;;;;;11.00;101571.00;;;;10045868;29;20273;-78
2023/02/16 21:28:55;;;;;;;8.87;6.20;;;;;11.00;101558.00;;;;10015590;29;20617;-77
2023/02/16 21:33:57;;;;;;;8.27;5.73;;;;;11.10;101566.00;;;;10030746;29;20207;-78
2023/02/16 21:39:01;;;;;;;7.20;5.60;;;;;11.10;101563.00;;;;10000926;29;20217;-78
2023/02/16 21:44:07;;;;;;;10.27;6.57;;;;;11.10;101579.00;;;;10030833;29;20205;-78
2023/02/16 21:49:15;;;;;;;8.07;5.63;;;;;11.10;101575.00;;;;10007673;29;20276;-78
2023/02/16 21:56:15;;;;;;;9.80;5.17;;;;;11.10;101574.00;;;;10028557;29;20205;-78
2023/02/16 21:59:40;;;;;;;9.10;6.10;;;;;11.10;101572.00;;;;10030374;29;20676;-78
2023/02/16 22:04:42;;;;;;;6.67;5.30;;;;;11.10;101566.00;;;;10032730;29;20206;-78
2023/02/16 22:09:45;;;;;;;6.33;4.93;;;;;11.10;101558.00;;;;9992467;29;20194;-78
2023/02/16 22:14:47;;;;;;;5.97;4.93;;;;;11.10;101561.00;;;;9993435;29;20317;-78
2023/02/16 22:19:49;;;;;;;6.80;5.30;;;;;11.20;101578.00;;;;10048899;29;20204;-78
2023/02/16 22:24:51;;;;;;;6.63;5.20;;;;;11.20;101568.00;;;;10075723;29;20245;-78
2023/02/16 22:29:53;;;;;;;7.63;5.33;;;;;11.20;101566.00;;;;10014029;29;20219;-78
2023/02/16 22:34:54;;;;;;;7.20;5.50;;;;;11.20;101558.00;;;;10044947;29;20304;-78
2023/02/16 22:39:56;;;;;;;7.73;5.63;;;;;11.10;101568.00;;;;10059718;29;20232;-78
2023/02/16 22:44:58;;;;;;;8.00;5.60;;;;;11.20;101566.00;;;;10097609;29;20699;-77
2023/02/16 22:50:00;;;;;;;6.50;5.37;;;;;11.20;101567.00;;;;10050371;29;20257;-78
2023/02/16 22:55:04;;;;;;;5.97;4.80;;;;;11.10;101573.00;;;;10023706;29;20695;-78
2023/02/16 23:00:09;;;;;;;8.10;5.23;;;;;11.10;101580.00;;;;10028723;29;20220;-78
2023/02/16 23:05:11;;;;;;;6.70;5.57;;;;;11.10;101568.00;;;;9997494;29;20196;-78
2023/02/16 23:10:14;;;;;;;6.53;5.77;;;;;11.10;101578.00;;;;10028550;29;20760;-78
2023/02/16 23:15:16;;;;;;;7.10;5.57;;;;;11.10;101576.00;;;;9996866;29;20868;-78
2023/02/16 23:20:18;;;;;;;6.90;5.47;;;;;11.10;101587.00;;;;10012488;29;20236;-78
2023/02/16 23:25:32;;;;;;;6.57;5.67;;;;;11.10;101583.00;;;;10027004;29;20719;-78
2023/02/16 23:30:34;;;;;;;9.37;6.67;;;;;11.10;101596.00;;;;10039338;29;20200;-78
2023/02/16 23:35:40;;;;;;;11.13;6.90;;;;;11.10;101586.00;;;;10011796;29;20574;-78
2023/02/16 23:40:42;;;;;;;9.07;6.63;;;;;11.10;101582.00;;;;10011855;29;20333;-78
2023/02/16 23:45:44;;;;;;;8.77;6.73;;;;;11.10;101590.00;;;;10064665;29;20199;-78
2023/02/16 23:50:47;;;;;;;9.00;7.17;;;;;11.00;101573.00;;;;10045632;29;20189;-78
2023/02/16 23:56:13;;;;;;;9.90;6.23;;;;;11.10;101580.00;;;;9991113;29;20229;-79
